Time;durP1;ratioP1;P1;durP2;ratioP2;P2;SDS_P1;SDS_P2;PMS_P1;PMS_P2;Temp;Humidity;BMP_temperature;BMP_pressure;BME280_temperature;BME280_humidity;BME280_pressure;Samples;Min_cycle;Max_cycle;Signal;HPM_P1;HPM_P2
2022/03/27 00:01:46;;;;;;;19.08;14.20;;;;;;;;;;5080885;28;20483;-73
2022/03/27 00:04:12;;;;;;;22.20;15.13;;;;;;;;;;5070774;28;20044;-72
2022/03/27 00:06:41;;;;;;;22.90;14.43;;;;;;;;;;5079159;28;20016;-73
2022/03/27 00:09:07;;;;;;;24.23;15.82;;;;;;;;;;5078268;28;20043;-71
2022/03/27 00:11:34;;;;;;;24.77;15.50;;;;;;;;;;5075427;28;20064;-72
2022/03/27 00:14:01;;;;;;;25.33;16.63;;;;;;;;;;5083491;28;20061;-71
2022/03/27 00:16:27;;;;;;;30.02;17.58;;;;;;;;;;5075176;28;20106;-71
2022/03/27 00:18:53;;;;;;;32.17;18.10;;;;;;;;;;5076761;28;20052;-71
2022/03/27 00:21:22;;;;;;;29.33;18.27;;;;;;;;;;5081922;28;20066;-71
2022/03/27 00:23:49;;;;;;;31.50;20.17;;;;;;;;;;5069009;28;20116;-72
2022/03/27 00:26:15;;;;;;;35.17;19.48;;;;;;;;;;5062372;28;20023;-72
2022/03/27 00:28:42;;;;;;;32.53;19.70;;;;;;;;;;5082565;28;20020;-71
2022/03/27 00:31:09;;;;;;;33.95;21.00;;;;;;;;;;5087177;28;20039;-72
2022/03/27 00:33:35;;;;;;;38.95;21.00;;;;;;;;;;5085161;28;20452;-72
2022/03/27 00:36:02;;;;;;;36.60;22.27;;;;;;;;;;5083425;28;20431;-71
2022/03/27 00:38:29;;;;;;;35.33;21.60;;;;;;;;;;5068723;28;20025;-72
2022/03/27 00:40:55;;;;;;;41.20;24.00;;;;;;;;;;5073017;28;20150;-71
2022/03/27 00:43:21;;;;;;;45.00;26.77;;;;;;;;;;5076076;28;20032;-72
2022/03/27 00:45:47;;;;;;;50.55;28.08;;;;;;;;;;5067551;28;20024;-71
2022/03/27 00:48:13;;;;;;;46.58;28.42;;;;;;;;;;5074915;28;20129;-72
2022/03/27 00:50:40;;;;;;;54.00;32.33;;;;;;;;;;5073379;28;20085;-71
2022/03/27 00:53:06;;;;;;;57.63;33.03;;;;;;;;;;5077133;28;20119;-71
2022/03/27 00:55:32;;;;;;;66.90;37.08;;;;;;;;;;5081044;28;20028;-71
2022/03/27 00:57:58;;;;;;;65.38;36.80;;;;;;;;;;5083844;28;20028;-72
2022/03/27 01:00:43;;;;;;;67.25;39.05;;;;;;;;;;5069701;28;20312;-72
2022/03/27 01:03:12;;;;;;;70.63;41.28;;;;;;;;;;5083964;28;20035;-72
2022/03/27 01:05:48;;;;;;;69.25;42.25;;;;;;;;;;5079578;28;20557;-72
2022/03/27 01:08:14;;;;;;;77.38;43.97;;;;;;;;;;5075833;28;20056;-72
2022/03/27 01:10:41;;;;;;;74.32;42.88;;;;;;;;;;5074281;28;20467;-72
2022/03/27 01:13:16;;;;;;;82.03;44.28;;;;;;;;;;5067776;28;20554;-71
2022/03/27 01:15:53;;;;;;;68.55;43.05;;;;;;;;;;5081858;28;20509;-71
2022/03/27 01:18:19;;;;;;;72.93;42.15;;;;;;;;;;5077387;28;20032;-72
2022/03/27 01:20:45;;;;;;;71.93;43.90;;;;;;;;;;5072468;28;20032;-72
2022/03/27 01:23:12;;;;;;;78.90;42.42;;;;;;;;;;5070406;28;20730;-71
2022/03/27 01:25:38;;;;;;;76.25;43.70;;;;;;;;;;5079229;28;20028;-72
2022/03/27 01:28:05;;;;;;;72.60;41.88;;;;;;;;;;5079606;28;20390;-72
2022/03/27 01:30:31;;;;;;;72.55;40.75;;;;;;;;;;5076114;28;20024;-72
2022/03/27 01:32:57;;;;;;;74.82;40.50;;;;;;;;;;5076788;28;20122;-72
2022/03/27 01:35:24;;;;;;;73.78;40.17;;;;;;;;;;5061788;28;20512;-72
2022/03/27 01:37:50;;;;;;;74.45;40.05;;;;;;;;;;5065484;28;20024;-72
2022/03/27 01:40:17;;;;;;;74.55;40.75;;;;;;;;;;5079858;28;20475;-72
2022/03/27 01:42:43;;;;;;;72.63;40.50;;;;;;;;;;5078450;28;20035;-71
2022/03/27 01:45:09;;;;;;;71.85;40.08;;;;;;;;;;5072153;28;20032;-72
2022/03/27 01:47:35;;;;;;;65.28;38.72;;;;;;;;;;5073312;28;20043;-72
2022/03/27 01:50:02;;;;;;;67.45;38.58;;;;;;;;;;5077474;28;20054;-72
2022/03/27 01:52:28;;;;;;;69.50;39.13;;;;;;;;;;5075796;28;20533;-71
2022/03/27 01:54:54;;;;;;;67.47;37.15;;;;;;;;;;5074412;28;20110;-72
2022/03/27 01:57:20;;;;;;;67.43;37.30;;;;;;;;;;5078830;28;20056;-72
2022/03/27 01:59:46;;;;;;;64.00;36.85;;;;;;;;;;5069063;28;20020;-72
2022/03/27 02:02:12;;;;;;;79.60;38.05;;;;;;;;;;5067335;28;20029;-72
2022/03/27 02:04:38;;;;;;;61.10;34.85;;;;;;;;;;5071091;28;20035;-72
2022/03/27 02:07:04;;;;;;;64.95;34.67;;;;;;;;;;5073711;28;20028;-71
2022/03/27 02:09:30;;;;;;;63.20;34.65;;;;;;;;;;5064734;28;20040;-71
2022/03/27 02:11:56;;;;;;;63.53;34.80;;;;;;;;;;5073533;28;20477;-72
2022/03/27 02:14:22;;;;;;;59.42;34.53;;;;;;;;;;5078040;28;20032;-72
2022/03/27 02:16:48;;;;;;;55.15;32.33;;;;;;;;;;5072429;28;20056;-72
2022/03/27 02:19:14;;;;;;;55.83;33.17;;;;;;;;;;5081342;28;20028;-72
2022/03/27 02:21:41;;;;;;;54.35;32.35;;;;;;;;;;5074750;28;20723;-72
2022/03/27 02:24:08;;;;;;;51.33;30.77;;;;;;;;;;5082324;28;20551;-71
2022/03/27 02:26:34;;;;;;;50.90;30.20;;;;;;;;;;5077878;28;20138;-72
2022/03/27 02:29:00;;;;;;;51.00;28.42;;;;;;;;;;5061558;28;20053;-72
2022/03/27 02:31:26;;;;;;;58.05;30.02;;;;;;;;;;5073285;28;20020;-72
2022/03/27 02:33:52;;;;;;;54.47;30.42;;;;;;;;;;5074476;28;20020;-72
2022/03/27 02:36:17;;;;;;;69.97;28.92;;;;;;;;;;5067553;28;20017;-72
2022/03/27 02:38:44;;;;;;;64.20;30.40;;;;;;;;;;5071282;28;20406;-72
2022/03/27 02:41:10;;;;;;;57.70;29.63;;;;;;;;;;5080031;28;20032;-72
2022/03/27 02:43:38;;;;;;;60.97;30.55;;;;;;;;;;5077946;28;20028;-71
2022/03/27 02:46:04;;;;;;;59.88;30.67;;;;;;;;;;5074024;28;20550;-71
2022/03/27 02:48:30;;;;;;;69.90;30.67;;;;;;;;;;5068548;28;20031;-72
2022/03/27 02:50:56;;;;;;;69.15;30.13;;;;;;;;;;5071951;28;20017;-72
2022/03/27 02:53:22;;;;;;;68.32;30.15;;;;;;;;;;5078474;28;20718;-72
2022/03/27 02:55:48;;;;;;;56.58;29.00;;;;;;;;;;5078413;28;20031;-72
2022/03/27 02:58:14;;;;;;;52.85;29.20;;;;;;;;;;5075857;28;20119;-72
2022/03/27 03:00:41;;;;;;;54.65;30.00;;;;;;;;;;5076580;28;20036;-72
2022/03/27 03:03:07;;;;;;;56.10;28.50;;;;;;;;;;5074028;28;20016;-72
2022/03/27 03:05:34;;;;;;;49.42;27.50;;;;;;;;;;5070213;28;20236;-71
2022/03/27 03:08:01;;;;;;;58.58;29.92;;;;;;;;;;5075990;28;20494;-72
2022/03/27 03:10:29;;;;;;;52.60;30.00;;;;;;;;;;5072505;28;20029;-71
2022/03/27 03:12:54;;;;;;;51.72;28.45;;;;;;;;;;5080910;28;20039;-71
2022/03/27 03:15:22;;;;;;;55.08;29.25;;;;;;;;;;5075842;28;20387;-72
2022/03/27 03:17:48;;;;;;;51.13;27.85;;;;;;;;;;5077014;28;20020;-72
2022/03/27 03:20:14;;;;;;;48.22;28.08;;;;;;;;;;5079013;28;20021;-71
2022/03/27 03:22:40;;;;;;;50.20;27.83;;;;;;;;;;5073043;28;20107;-71
2022/03/27 03:25:06;;;;;;;57.22;27.45;;;;;;;;;;5081626;28;20028;-72
2022/03/27 03:27:32;;;;;;;49.38;27.25;;;;;;;;;;5078414;28;20032;-71
2022/03/27 03:29:59;;;;;;;44.15;25.60;;;;;;;;;;5081051;28;20038;-70
2022/03/27 03:32:25;;;;;;;44.63;26.70;;;;;;;;;;5078277;28;20059;-72
2022/03/27 03:34:51;;;;;;;43.75;25.33;;;;;;;;;;5074736;28;20540;-71
2022/03/27 03:37:17;;;;;;;51.88;25.38;;;;;;;;;;5085968;28;20166;-72
2022/03/27 03:39:43;;;;;;;33.22;22.52;;;;;;;;;;5082826;28;20016;-72
2022/03/27 03:42:09;;;;;;;33.35;21.80;;;;;;;;;;5079960;28;20012;-72
2022/03/27 03:44:37;;;;;;;34.17;23.15;;;;;;;;;;5076098;28;20595;-71
2022/03/27 03:47:03;;;;;;;33.88;22.65;;;;;;;;;;5068000;28;20024;-71
2022/03/27 03:49:29;;;;;;;38.25;23.15;;;;;;;;;;5071657;28;20020;-71
2022/03/27 03:51:56;;;;;;;35.65;22.55;;;;;;;;;;5079295;28;20077;-72
2022/03/27 03:54:22;;;;;;;33.60;21.85;;;;;;;;;;5065102;28;20029;-72
2022/03/27 03:56:48;;;;;;;34.28;22.27;;;;;;;;;;5080911;28;20016;-72
2022/03/27 03:59:14;;;;;;;37.92;22.48;;;;;;;;;;5075552;28;20115;-71
2022/03/27 04:01:40;;;;;;;33.83;22.38;;;;;;;;;;5078840;28;20033;-72
2022/03/27 04:04:06;;;;;;;36.88;20.83;;;;;;;;;;5084433;28;20036;-72
2022/03/27 04:06:33;;;;;;;33.38;22.20;;;;;;;;;;5082745;28;20032;-72
2022/03/27 04:08:59;;;;;;;36.58;23.23;;;;;;;;;;5080508;28;20044;-71
2022/03/27 04:11:24;;;;;;;40.17;23.75;;;;;;;;;;5079864;28;20038;-71
2022/03/27 04:13:50;;;;;;;33.10;21.80;;;;;;;;;;5077796;28;20066;-72
2022/03/27 04:16:16;;;;;;;37.72;23.80;;;;;;;;;;5081037;28;20448;-72
2022/03/27 04:18:43;;;;;;;41.47;22.98;;;;;;;;;;5075596;28;20543;-71
2022/03/27 04:21:09;;;;;;;39.92;23.58;;;;;;;;;;5070223;28;20033;-72
2022/03/27 04:23:35;;;;;;;43.58;24.65;;;;;;;;;;5072843;28;20085;-72
2022/03/27 04:26:03;;;;;;;44.70;25.00;;;;;;;;;;5067695;28;20073;-71
2022/03/27 04:28:29;;;;;;;42.78;24.52;;;;;;;;;;5079554;28;20030;-72
2022/03/27 04:30:55;;;;;;;44.42;24.50;;;;;;;;;;5073222;28;20107;-72
2022/03/27 04:33:20;;;;;;;48.63;26.17;;;;;;;;;;5076824;28;20020;-72
2022/03/27 04:35:46;;;;;;;43.42;25.33;;;;;;;;;;5074569;28;20031;-72
2022/03/27 04:38:12;;;;;;;44.22;25.33;;;;;;;;;;5085485;28;20032;-72
2022/03/27 04:40:38;;;;;;;42.13;25.92;;;;;;;;;;5077081;28;20028;-72
2022/03/27 04:43:05;;;;;;;50.08;26.17;;;;;;;;;;5070013;28;20048;-72
2022/03/27 04:45:31;;;;;;;47.28;26.90;;;;;;;;;;5084680;28;20020;-72
2022/03/27 04:47:57;;;;;;;49.25;27.02;;;;;;;;;;5076758;28;20021;-72
2022/03/27 04:50:23;;;;;;;43.00;24.55;;;;;;;;;;5083576;28;20031;-72
2022/03/27 04:52:49;;;;;;;45.03;25.80;;;;;;;;;;5080299;28;20039;-72
2022/03/27 04:55:15;;;;;;;45.10;26.35;;;;;;;;;;5084521;28;20050;-73
2022/03/27 04:57:41;;;;;;;49.38;27.10;;;;;;;;;;5066249;28;20479;-72
2022/03/27 05:00:10;;;;;;;50.25;26.75;;;;;;;;;;5069522;28;20038;-72
2022/03/27 05:02:36;;;;;;;46.33;25.95;;;;;;;;;;5078663;28;20470;-72
2022/03/27 05:05:04;;;;;;;48.20;25.52;;;;;;;;;;5072794;28;20115;-72
2022/03/27 05:07:30;;;;;;;46.95;26.10;;;;;;;;;;5070572;28;20029;-72
2022/03/27 05:09:56;;;;;;;43.70;26.38;;;;;;;;;;5079188;28;20047;-73
2022/03/27 05:12:22;;;;;;;46.50;26.58;;;;;;;;;;5078193;28;20024;-72
2022/03/27 05:14:47;;;;;;;45.20;25.55;;;;;;;;;;5072273;28;20505;-73
2022/03/27 05:17:13;;;;;;;46.08;27.10;;;;;;;;;;5080683;28;20054;-72
2022/03/27 05:19:39;;;;;;;45.13;26.00;;;;;;;;;;5083713;28;20120;-72
2022/03/27 05:22:07;;;;;;;44.88;26.05;;;;;;;;;;5070585;28;20123;-72
2022/03/27 05:24:32;;;;;;;42.60;25.70;;;;;;;;;;5073488;28;20484;-72
2022/03/27 05:26:58;;;;;;;45.47;26.60;;;;;;;;;;5071442;28;20115;-72
2022/03/27 05:29:24;;;;;;;48.42;27.33;;;;;;;;;;5073021;28;20106;-72
2022/03/27 05:31:51;;;;;;;47.15;26.02;;;;;;;;;;5069833;28;20021;-73
2022/03/27 05:34:18;;;;;;;47.30;26.45;;;;;;;;;;5076961;28;20038;-72
2022/03/27 05:36:45;;;;;;;43.47;26.02;;;;;;;;;;5068363;28;20483;-71
2022/03/27 05:39:11;;;;;;;50.90;27.33;;;;;;;;;;5066963;28;20600;-72
2022/03/27 05:41:37;;;;;;;50.58;27.60;;;;;;;;;;5072133;28;20035;-72
2022/03/27 05:44:03;;;;;;;48.85;27.15;;;;;;;;;;5080447;28;20040;-72
2022/03/27 05:46:29;;;;;;;51.03;27.40;;;;;;;;;;5073206;28;20028;-73
2022/03/27 05:48:55;;;;;;;45.38;26.17;;;;;;;;;;5076354;28;20387;-73
2022/03/27 05:51:21;;;;;;;46.92;25.83;;;;;;;;;;5078210;28;20013;-72
2022/03/27 05:53:47;;;;;;;43.67;24.85;;;;;;;;;;5073845;28;20055;-73
2022/03/27 05:56:13;;;;;;;44.85;24.88;;;;;;;;;;5081757;28;20037;-73
2022/03/27 05:58:39;;;;;;;39.70;24.25;;;;;;;;;;5081955;28;20050;-72
2022/03/27 06:01:05;;;;;;;46.20;25.02;;;;;;;;;;5078545;28;20494;-72
2022/03/27 06:03:31;;;;;;;41.20;25.38;;;;;;;;;;5076934;28;20044;-71
2022/03/27 06:05:57;;;;;;;41.13;24.17;;;;;;;;;;5084689;28;20024;-72
2022/03/27 06:08:23;;;;;;;41.95;24.77;;;;;;;;;;5074665;28;20044;-71
2022/03/27 06:10:49;;;;;;;44.15;25.13;;;;;;;;;;5081626;28;20383;-72
2022/03/27 06:13:16;;;;;;;44.67;25.15;;;;;;;;;;5083304;28;20032;-72
2022/03/27 06:15:42;;;;;;;46.22;25.60;;;;;;;;;;5073318;28;20453;-72
2022/03/27 06:18:09;;;;;;;37.35;23.67;;;;;;;;;;5075982;28;20675;-72
2022/03/27 06:20:35;;;;;;;38.88;23.83;;;;;;;;;;5080968;28;20130;-72
2022/03/27 06:23:01;;;;;;;40.25;23.20;;;;;;;;;;5076547;28;20047;-72
2022/03/27 06:25:28;;;;;;;35.88;23.00;;;;;;;;;;5083152;28;20013;-72
2022/03/27 06:27:55;;;;;;;33.28;22.45;;;;;;;;;;5081801;28;20020;-72
2022/03/27 06:30:22;;;;;;;34.83;23.25;;;;;;;;;;5076990;28;20074;-73
2022/03/27 06:32:48;;;;;;;33.58;21.50;;;;;;;;;;5088565;28;20048;-72
2022/03/27 06:35:15;;;;;;;35.55;22.83;;;;;;;;;;5089067;28;20145;-72
2022/03/27 06:37:42;;;;;;;35.08;21.63;;;;;;;;;;5086666;28;20040;-72
2022/03/27 06:40:09;;;;;;;32.65;21.60;;;;;;;;;;5079712;28;20040;-72
2022/03/27 06:42:36;;;;;;;37.00;23.85;;;;;;;;;;5085889;28;20034;-72
2022/03/27 06:45:02;;;;;;;37.05;23.08;;;;;;;;;;5081378;28;20048;-72
2022/03/27 06:47:29;;;;;;;35.92;23.45;;;;;;;;;;5076825;28;20098;-72
2022/03/27 06:49:56;;;;;;;37.40;22.98;;;;;;;;;;5084496;28;20012;-72
2022/03/27 06:52:22;;;;;;;34.40;21.77;;;;;;;;;;5075261;28;20024;-72
2022/03/27 06:54:48;;;;;;;34.45;22.20;;;;;;;;;;5083458;28;20035;-72
2022/03/27 06:57:14;;;;;;;34.72;21.15;;;;;;;;;;5078505;28;20502;-73
2022/03/27 07:05:11;;;;;;;32.00;21.98;;;;;;;;;;5077787;28;20098;-73
2022/03/27 07:07:37;;;;;;;35.70;23.00;;;;;;;;;;5084640;28;20364;-72
2022/03/27 07:10:04;;;;;;;37.97;23.33;;;;;;;;;;5089722;28;20027;-71
2022/03/27 07:12:29;;;;;;;34.10;22.98;;;;;;;;;;5081753;28;20103;-72
2022/03/27 07:14:55;;;;;;;38.25;23.83;;;;;;;;;;5091395;28;20028;-72
2022/03/27 07:17:21;;;;;;;34.90;23.77;;;;;;;;;;5081341;28;20464;-72
2022/03/27 07:19:48;;;;;;;34.95;22.50;;;;;;;;;;5075797;28;20033;-72
2022/03/27 07:22:14;;;;;;;33.38;22.50;;;;;;;;;;5082448;28;20020;-74
2022/03/27 07:24:41;;;;;;;36.70;23.27;;;;;;;;;;5083801;28;20024;-73
2022/03/27 07:27:08;;;;;;;36.22;23.77;;;;;;;;;;5080205;28;20021;-74
2022/03/27 07:29:37;;;;;;;37.25;22.95;;;;;;;;;;5074634;28;20044;-74
2022/03/27 07:32:03;;;;;;;35.60;22.58;;;;;;;;;;5079656;28;20372;-75
2022/03/27 07:34:29;;;;;;;38.72;23.55;;;;;;;;;;5081340;28;20081;-74
2022/03/27 07:36:55;;;;;;;36.58;23.90;;;;;;;;;;5086905;28;20028;-74
2022/03/27 07:39:21;;;;;;;31.23;22.98;;;;;;;;;;5085045;28;20032;-74
2022/03/27 07:41:47;;;;;;;34.10;22.45;;;;;;;;;;5088144;28;20028;-74
2022/03/27 07:44:13;;;;;;;30.80;20.75;;;;;;;;;;5075498;28;20109;-74
2022/03/27 07:46:39;;;;;;;33.47;22.08;;;;;;;;;;5075994;28;20029;-74
2022/03/27 07:49:06;;;;;;;32.10;21.67;;;;;;;;;;5077404;28;20031;-75
2022/03/27 07:51:33;;;;;;;32.47;22.15;;;;;;;;;;5085255;28;20028;-72
2022/03/27 07:53:59;;;;;;;31.13;22.40;;;;;;;;;;5086860;28;20426;-72
2022/03/27 07:56:25;;;;;;;32.00;21.40;;;;;;;;;;5080015;28;20025;-71
2022/03/27 07:58:52;;;;;;;30.48;21.77;;;;;;;;;;5081898;28;20451;-70
2022/03/27 08:01:18;;;;;;;28.25;19.48;;;;;;;;;;5073686;28;20028;-73
2022/03/27 08:03:44;;;;;;;26.85;18.63;;;;;;;;;;5082779;28;20120;-71
2022/03/27 08:06:10;;;;;;;29.15;19.60;;;;;;;;;;5076818;28;20054;-71
2022/03/27 08:08:36;;;;;;;27.55;19.30;;;;;;;;;;5078655;28;20044;-70
2022/03/27 08:11:02;;;;;;;26.30;18.52;;;;;;;;;;5083839;28;20493;-71
2022/03/27 08:13:28;;;;;;;27.05;18.77;;;;;;;;;;5081216;28;20093;-72
2022/03/27 08:15:54;;;;;;;25.17;17.73;;;;;;;;;;5080596;28;20509;-70
2022/03/27 08:18:20;;;;;;;22.52;15.70;;;;;;;;;;5076406;28;20024;-71
2022/03/27 08:20:46;;;;;;;22.77;15.07;;;;;;;;;;5074322;28;20162;-71
2022/03/27 08:23:13;;;;;;;21.23;15.75;;;;;;;;;;5072176;28;20039;-70
2022/03/27 08:28:23;;;;;;;18.90;13.68;;;;;;;;;;5079924;28;20066;-70
2022/03/27 08:30:50;;;;;;;20.00;14.57;;;;;;;;;;5083354;28;20040;-69
2022/03/27 08:33:16;;;;;;;21.58;14.60;;;;;;;;;;5081559;28;20024;-69
2022/03/27 08:35:43;;;;;;;20.05;14.60;;;;;;;;;;5080348;28;20093;-71
2022/03/27 08:38:10;;;;;;;20.83;13.95;;;;;;;;;;5077948;28;20432;-72
2022/03/27 08:40:38;;;;;;;21.58;14.88;;;;;;;;;;5077975;28;20034;-68
2022/03/27 08:43:05;;;;;;;22.08;13.63;;;;;;;;;;5086702;28;20482;-68
2022/03/27 08:45:31;;;;;;;20.17;14.20;;;;;;;;;;5075367;28;20163;-67
2022/03/27 08:47:57;;;;;;;20.10;14.50;;;;;;;;;;5084578;28;20111;-67
2022/03/27 08:50:30;;;;;;;19.38;12.95;;;;;;;;;;5082937;28;20057;-68
2022/03/27 08:52:58;;;;;;;16.80;12.75;;;;;;;;;;5081977;28;20051;-68
2022/03/27 08:55:38;;;;;;;21.85;13.48;;;;;;;;;;5084763;28;20027;-68
2022/03/27 08:58:06;;;;;;;20.83;13.05;;;;;;;;;;5084845;28;20427;-67
2022/03/27 09:00:33;;;;;;;17.55;11.55;;;;;;;;;;5083241;28;20052;-67
2022/03/27 09:03:01;;;;;;;17.02;11.60;;;;;;;;;;5081756;28;20036;-66
2022/03/27 09:05:27;;;;;;;16.13;11.57;;;;;;;;;;5077918;28;20024;-66
2022/03/27 09:07:54;;;;;;;17.92;12.43;;;;;;;;;;5082527;28;21224;-66
2022/03/27 09:10:19;;;;;;;18.75;12.18;;;;;;;;;;5086636;28;20443;-67
2022/03/27 09:12:46;;;;;;;17.58;12.40;;;;;;;;;;5084740;28;20086;-66
2022/03/27 09:15:12;;;;;;;18.05;12.88;;;;;;;;;;5083025;28;20028;-66
2022/03/27 09:17:59;;;;;;;16.38;12.73;;;;;;;;;;5080918;28;20047;-68
2022/03/27 09:20:52;;;;;;;15.38;11.20;;;;;;;;;;5083489;28;20122;-69
2022/03/27 09:23:19;;;;;;;14.77;10.65;;;;;;;;;;5080806;28;20132;-69
2022/03/27 09:25:45;;;;;;;13.57;11.00;;;;;;;;;;5086046;28;20038;-69
2022/03/27 09:28:10;;;;;;;14.20;9.77;;;;;;;;;;5084576;28;20028;-69
2022/03/27 09:30:36;;;;;;;63.08;32.47;;;;;;;;;;5086381;28;20047;-69
2022/03/27 09:33:03;;;;;;;15.60;11.02;;;;;;;;;;5087462;28;20115;-68
2022/03/27 09:35:29;;;;;;;18.50;10.10;;;;;;;;;;5085453;28;20024;-68
2022/03/27 09:37:55;;;;;;;11.48;7.70;;;;;;;;;;5083766;28;20024;-69
2022/03/27 09:40:24;;;;;;;11.68;9.63;;;;;;;;;;5084550;28;20027;-68
2022/03/27 09:43:08;;;;;;;12.80;9.40;;;;;;;;;;5087210;28;20032;-68
2022/03/27 09:45:40;;;;;;;12.63;8.80;;;;;;;;;;5085476;28;20027;-69
2022/03/27 09:48:09;;;;;;;12.70;9.57;;;;;;;;;;5081925;28;20055;-68
2022/03/27 09:50:39;;;;;;;13.30;9.07;;;;;;;;;;5086560;28;20058;-69
2022/03/27 09:53:24;;;;;;;12.02;9.43;;;;;;;;;;5085449;28;20475;-68
2022/03/27 09:55:56;;;;;;;11.63;8.80;;;;;;;;;;5082948;28;20127;-68
2022/03/27 09:58:41;;;;;;;12.38;9.10;;;;;;;;;;5080846;28;20043;-70
2022/03/27 10:01:22;;;;;;;15.85;8.52;;;;;;;;;;5084528;28;20077;-69
2022/03/27 10:03:57;;;;;;;11.75;7.70;;;;;;;;;;5083080;28;20032;-69
2022/03/27 10:06:31;;;;;;;9.80;6.97;;;;;;;;;;5081140;28;20024;-70
2022/03/27 10:08:57;;;;;;;9.02;6.60;;;;;;;;;;5076649;28;20129;-72
2022/03/27 10:11:24;;;;;;;7.97;6.20;;;;;;;;;;5082940;28;20571;-71
2022/03/27 10:13:53;;;;;;;11.35;6.35;;;;;;;;;;5082243;28;20059;-70
2022/03/27 10:16:29;;;;;;;8.43;6.22;;;;;;;;;;5081128;28;20031;-72
2022/03/27 10:18:56;;;;;;;9.00;6.18;;;;;;;;;;5084052;28;20035;-71
2022/03/27 10:21:27;;;;;;;6.70;5.13;;;;;;;;;;5082443;28;20166;-70
2022/03/27 10:23:55;;;;;;;5.22;4.50;;;;;;;;;;5080687;28;20024;-70
2022/03/27 10:26:21;;;;;;;11.23;7.07;;;;;;;;;;5083461;28;20065;-70
2022/03/27 10:28:50;;;;;;;8.43;6.22;;;;;;;;;;5082256;28;20024;-70
2022/03/27 10:31:16;;;;;;;7.80;5.43;;;;;;;;;;5080819;28;20032;-69
2022/03/27 10:33:43;;;;;;;10.93;5.90;;;;;;;;;;5079334;28;20529;-69
2022/03/27 10:36:12;;;;;;;9.15;6.75;;;;;;;;;;5082674;28;20048;-69
2022/03/27 10:38:55;;;;;;;11.35;7.25;;;;;;;;;;5082786;28;20052;-70
2022/03/27 10:41:27;;;;;;;9.00;5.82;;;;;;;;;;5085095;28;20032;-70
2022/03/27 10:44:13;;;;;;;8.55;6.68;;;;;;;;;;5084042;28;20028;-70
2022/03/27 10:46:39;;;;;;;8.20;6.35;;;;;;;;;;5083273;28;21184;-70
2022/03/27 10:49:16;;;;;;;8.95;6.57;;;;;;;;;;5083148;28;20032;-72
2022/03/27 10:51:43;;;;;;;8.85;6.43;;;;;;;;;;5084474;28;20479;-73
2022/03/27 10:54:11;;;;;;;10.55;6.45;;;;;;;;;;5083026;28;20028;-73
2022/03/27 10:56:39;;;;;;;8.05;5.82;;;;;;;;;;5084738;28;20046;-71
2022/03/27 10:59:16;;;;;;;10.95;6.05;;;;;;;;;;5081720;28;20063;-70
2022/03/27 11:01:43;;;;;;;8.68;5.32;;;;;;;;;;5082954;28;20032;-72
2022/03/27 11:04:19;;;;;;;6.35;4.75;;;;;;;;;;5083138;28;20467;-74
2022/03/27 11:06:46;;;;;;;7.97;5.80;;;;;;;;;;5083740;28;20020;-70
2022/03/27 11:09:30;;;;;;;6.38;5.38;;;;;;;;;;5080400;28;20067;-71
2022/03/27 11:11:57;;;;;;;10.02;5.90;;;;;;;;;;5084947;28;20124;-71
2022/03/27 11:14:43;;;;;;;7.45;5.10;;;;;;;;;;5082508;28;20115;-70
2022/03/27 11:17:13;;;;;;;6.50;4.78;;;;;;;;;;5067348;28;20089;-70
2022/03/27 11:20:08;;;;;;;7.47;4.50;;;;;;;;;;5082574;28;20390;-69
2022/03/27 11:22:43;;;;;;;6.63;4.72;;;;;;;;;;5082271;28;20036;-71
2022/03/27 11:25:45;;;;;;;8.45;4.82;;;;;;;;;;5081758;28;20035;-73
2022/03/27 11:28:12;;;;;;;5.43;3.70;;;;;;;;;;5043877;28;20028;-73
2022/03/27 11:30:58;;;;;;;7.40;4.65;;;;;;;;;;5080128;28;20035;-72
2022/03/27 11:33:26;;;;;;;6.75;4.82;;;;;;;;;;5084616;28;20072;-72
2022/03/27 11:36:01;;;;;;;5.78;5.05;;;;;;;;;;5089933;28;20085;-73
2022/03/27 11:38:47;;;;;;;6.13;4.80;;;;;;;;;;5088938;28;20625;-72
2022/03/27 11:41:24;;;;;;;8.50;4.60;;;;;;;;;;5072996;28;20032;-72
2022/03/27 11:43:53;;;;;;;6.22;4.60;;;;;;;;;;5087400;28;20038;-72
2022/03/27 11:46:23;;;;;;;8.23;4.78;;;;;;;;;;5090375;28;20043;-72
2022/03/27 11:48:56;;;;;;;6.97;4.28;;;;;;;;;;5084982;28;20016;-72
2022/03/27 11:51:24;;;;;;;5.90;4.50;;;;;;;;;;5086016;28;20039;-73
2022/03/27 11:53:51;;;;;;;5.97;4.28;;;;;;;;;;5080516;28;20113;-73
2022/03/27 11:56:17;;;;;;;6.13;4.53;;;;;;;;;;5087797;28;20517;-72
2022/03/27 11:58:43;;;;;;;7.18;4.28;;;;;;;;;;5087404;28;20035;-71
2022/03/27 12:01:10;;;;;;;5.30;3.70;;;;;;;;;;5087661;28;20047;-72
2022/03/27 12:03:36;;;;;;;4.95;3.90;;;;;;;;;;5092311;28;20085;-72
2022/03/27 12:06:11;;;;;;;7.93;4.00;;;;;;;;;;5074763;28;20028;-72
2022/03/27 12:08:39;;;;;;;5.80;4.05;;;;;;;;;;5091860;28;20036;-72
2022/03/27 12:11:06;;;;;;;4.03;3.63;;;;;;;;;;5071724;28;20720;-72
2022/03/27 12:13:39;;;;;;;4.78;3.75;;;;;;;;;;5078448;28;20082;-73
2022/03/27 12:16:05;;;;;;;4.95;3.70;;;;;;;;;;5084544;28;20062;-71
2022/03/27 12:18:35;;;;;;;6.22;3.92;;;;;;;;;;5078517;28;20028;-72
2022/03/27 12:21:05;;;;;;;5.53;3.50;;;;;;;;;;5081368;28;20016;-72
2022/03/27 12:23:32;;;;;;;5.10;3.85;;;;;;;;;;5082441;28;20077;-72
2022/03/27 12:26:04;;;;;;;6.70;3.63;;;;;;;;;;5075943;28;20020;-72
2022/03/27 12:31:23;;;;;;;5.90;4.25;;;;;;;;;;5074307;28;20086;-73
2022/03/27 12:33:50;;;;;;;4.65;3.83;;;;;;;;;;5087955;28;20104;-73
2022/03/27 12:36:16;;;;;;;5.20;3.83;;;;;;;;;;5082828;28;20062;-72
2022/03/27 12:38:42;;;;;;;6.47;4.40;;;;;;;;;;5070827;28;20029;-71
2022/03/27 12:41:10;;;;;;;5.97;3.60;;;;;;;;;;5078168;28;20028;-72
2022/03/27 12:43:37;;;;;;;4.20;3.80;;;;;;;;;;5081400;28;20028;-72
2022/03/27 12:46:23;;;;;;;4.88;3.53;;;;;;;;;;5082317;28;20050;-72
2022/03/27 12:49:03;;;;;;;5.32;3.15;;;;;;;;;;5086646;28;20024;-72
2022/03/27 12:51:29;;;;;;;5.10;3.70;;;;;;;;;;5078248;28;20094;-71
2022/03/27 12:54:21;;;;;;;5.63;3.40;;;;;;;;;;5092519;28;20040;-72
2022/03/27 12:56:57;;;;;;;4.35;3.63;;;;;;;;;;5074184;28;20120;-71
2022/03/27 12:59:23;;;;;;;4.95;3.28;;;;;;;;;;5086570;28;20032;-71
2022/03/27 13:01:50;;;;;;;4.43;3.42;;;;;;;;;;5075421;28;20316;-70
2022/03/27 13:04:16;;;;;;;4.22;3.40;;;;;;;;;;5080470;28;20236;-71
2022/03/27 13:06:43;;;;;;;5.57;3.30;;;;;;;;;;5079298;28;20020;-70
2022/03/27 13:09:10;;;;;;;5.25;3.63;;;;;;;;;;5071319;28;20079;-70
2022/03/27 13:11:40;;;;;;;6.03;3.92;;;;;;;;;;5077377;28;20036;-70
2022/03/27 13:14:07;;;;;;;5.00;3.92;;;;;;;;;;5077490;28;20024;-70
2022/03/27 13:16:53;;;;;;;4.90;3.33;;;;;;;;;;5070309;28;20032;-70
2022/03/27 13:19:20;;;;;;;6.10;3.38;;;;;;;;;;5081890;28;20035;-71
2022/03/27 13:21:47;;;;;;;3.80;3.30;;;;;;;;;;5079541;28;20085;-70
2022/03/27 13:24:15;;;;;;;4.25;3.20;;;;;;;;;;5074778;28;20035;-70
2022/03/27 13:26:42;;;;;;;3.40;3.10;;;;;;;;;;5078791;28;20020;-71
2022/03/27 13:31:58;;;;;;;3.88;3.47;;;;;;;;;;5065590;28;20036;-73
2022/03/27 13:34:24;;;;;;;3.45;3.13;;;;;;;;;;5074558;28;20097;-75
2022/03/27 13:36:52;;;;;;;4.70;3.38;;;;;;;;;;5080906;28;20809;-74
2022/03/27 13:39:18;;;;;;;3.72;3.08;;;;;;;;;;5081663;28;20403;-76
2022/03/27 13:44:30;;;;;;;2.90;2.58;;;;;;;;;;5073795;28;20067;-73
2022/03/27 13:46:56;;;;;;;4.55;2.95;;;;;;;;;;5075713;28;20024;-69
2022/03/27 13:49:22;;;;;;;6.15;3.15;;;;;;;;;;5072427;28;20030;-68
2022/03/27 13:51:48;;;;;;;4.22;3.50;;;;;;;;;;5071724;28;20021;-69
2022/03/27 13:54:15;;;;;;;5.40;3.13;;;;;;;;;;5061018;28;20814;-69
2022/03/27 13:56:41;;;;;;;9.25;6.47;;;;;;;;;;5075069;28;20930;-70
2022/03/27 13:59:11;;;;;;;13.10;9.27;;;;;;;;;;5070546;28;20031;-72
2022/03/27 14:01:39;;;;;;;10.68;7.35;;;;;;;;;;5063473;28;20027;-70
2022/03/27 14:04:06;;;;;;;171.85;134.38;;;;;;;;;;5080531;28;20046;-70
2022/03/27 14:06:32;;;;;;;14.65;11.65;;;;;;;;;;5076292;28;20162;-69
2022/03/27 14:08:58;;;;;;;37.50;26.85;;;;;;;;;;5079320;28;20619;-70
2022/03/27 14:11:24;;;;;;;7.45;6.40;;;;;;;;;;5087538;28;20615;-73
2022/03/27 14:13:49;;;;;;;36.20;31.75;;;;;;;;;;5078611;28;20532;-71
2022/03/27 14:16:16;;;;;;;6.90;4.30;;;;;;;;;;5074329;28;20040;-69
2022/03/27 14:18:42;;;;;;;29.77;23.08;;;;;;;;;;5079592;28;20040;-71
2022/03/27 14:21:08;;;;;;;6.15;4.93;;;;;;;;;;5076041;28;20036;-69
2022/03/27 14:23:34;;;;;;;6.38;4.95;;;;;;;;;;5072560;28;20032;-70
2022/03/27 14:26:01;;;;;;;20.05;13.80;;;;;;;;;;5077755;28;20074;-71
2022/03/27 14:28:31;;;;;;;33.85;25.33;;;;;;;;;;5072004;28;20031;-70
2022/03/27 14:30:57;;;;;;;275.48;210.18;;;;;;;;;;5071490;28;20035;-70
2022/03/27 14:33:23;;;;;;;15.27;10.93;;;;;;;;;;5066689;28;20028;-70
2022/03/27 14:35:49;;;;;;;62.75;50.42;;;;;;;;;;5092065;28;20080;-70
2022/03/27 14:38:15;;;;;;;22.15;16.33;;;;;;;;;;5077699;28;20027;-70
2022/03/27 14:40:42;;;;;;;16.92;11.20;;;;;;;;;;5079105;28;20498;-70
2022/03/27 14:43:08;;;;;;;5.47;4.70;;;;;;;;;;5083074;28;20117;-71
2022/03/27 14:45:34;;;;;;;4.28;3.63;;;;;;;;;;5067997;28;20084;-68